sensor_id;sensor_type;location;lat;lon;timestamp;temperature;humidity
13711;DHT22;6927;51.256;9.410;2023-05-07T00:01:39;12.80;99.90
13711;DHT22;6927;51.256;9.410;2023-05-07T00:04:05;12.80;99.90
13711;DHT22;6927;51.256;9.410;2023-05-07T00:06:32;12.80;99.90
13711;DHT22;6927;51.256;9.410;2023-05-07T00:08:58;12.70;99.90
13711;DHT22;6927;51.256;9.410;2023-05-07T00:11:23;12.70;99.90
13711;DHT22;6927;51.256;9.410;2023-05-07T00:13:49;12.60;99.90
13711;DHT22;6927;51.256;9.410;2023-05-07T00:16:14;12.60;99.90
13711;DHT22;6927;51.256;9.410;2023-05-07T00:18:40;12.60;99.90
13711;DHT22;6927;51.256;9.410;2023-05-07T00:21:06;12.50;99.90
13711;DHT22;6927;51.256;9.410;2023-05-07T00:23:31;12.50;99.90
13711;DHT22;6927;51.256;9.410;2023-05-07T00:25:57;12.50;99.90
13711;DHT22;6927;51.256;9.410;2023-05-07T00:28:22;12.50;99.90
13711;DHT22;6927;51.256;9.410;2023-05-07T00:30:48;12.50;99.90
13711;DHT22;6927;51.256;9.410;2023-05-07T00:33:14;12.50;99.90
13711;DHT22;6927;51.256;9.410;2023-05-07T00:35:39;12.50;99.90
13711;DHT22;6927;51.256;9.410;2023-05-07T00:38:05;12.50;99.90
13711;DHT22;6927;51.256;9.410;2023-05-07T00:40:30;12.50;99.90
13711;DHT22;6927;51.256;9.410;2023-05-07T00:42:56;12.50;99.90
13711;DHT22;6927;51.256;9.410;2023-05-07T00:45:26;12.50;99.90
13711;DHT22;6927;51.256;9.410;2023-05-07T00:47:59;12.50;99.90
13711;DHT22;6927;51.256;9.410;2023-05-07T00:50:26;12.50;99.90
13711;DHT22;6927;51.256;9.410;2023-05-07T00:52:52;12.40;99.90
13711;DHT22;6927;51.256;9.410;2023-05-07T00:55:18;12.40;99.90
13711;DHT22;6927;51.256;9.410;2023-05-07T00:57:44;12.40;99.90
13711;DHT22;6927;51.256;9.410;2023-05-07T01:00:11;12.40;99.90
13711;DHT22;6927;51.256;9.410;2023-05-07T01:02:41;12.30;99.90
13711;DHT22;6927;51.256;9.410;2023-05-07T01:05:09;12.30;99.90
13711;DHT22;6927;51.256;9.410;2023-05-07T01:07:35;12.30;99.90
13711;DHT22;6927;51.256;9.410;2023-05-07T01:10:02;12.30;99.90
13711;DHT22;6927;51.256;9.410;2023-05-07T01:12:28;12.20;99.90
13711;DHT22;6927;51.256;9.410;2023-05-07T01:14:55;12.20;99.90
13711;DHT22;6927;51.256;9.410;2023-05-07T01:17:20;12.20;99.90
13711;DHT22;6927;51.256;9.410;2023-05-07T01:19:46;12.20;99.90
13711;DHT22;6927;51.256;9.410;2023-05-07T01:22:15;12.20;99.90
13711;DHT22;6927;51.256;9.410;2023-05-07T01:24:42;12.10;99.90
13711;DHT22;6927;51.256;9.410;2023-05-07T01:27:08;12.10;99.90
13711;DHT22;6927;51.256;9.410;2023-05-07T01:29:34;12.10;99.90
13711;DHT22;6927;51.256;9.410;2023-05-07T01:32:00;12.10;99.90
13711;DHT22;6927;51.256;9.410;2023-05-07T01:34:28;12.10;99.90
13711;DHT22;6927;51.256;9.410;2023-05-07T01:36:56;12.00;99.90
13711;DHT22;6927;51.256;9.410;2023-05-07T01:39:27;12.00;99.90
13711;DHT22;6927;51.256;9.410;2023-05-07T01:41:55;11.90;99.90
13711;DHT22;6927;51.256;9.410;2023-05-07T01:44:22;12.00;99.90
13711;DHT22;6927;51.256;9.410;2023-05-07T01:46:48;11.90;99.90
13711;DHT22;6927;51.256;9.410;2023-05-07T01:49:15;11.90;99.90
13711;DHT22;6927;51.256;9.410;2023-05-07T01:51:41;11.90;99.90
13711;DHT22;6927;51.256;9.410;2023-05-07T01:54:07;11.90;99.90
13711;DHT22;6927;51.256;9.410;2023-05-07T01:56:33;11.90;99.90
13711;DHT22;6927;51.256;9.410;2023-05-07T01:58:59;11.90;99.90
13711;DHT22;6927;51.256;9.410;2023-05-07T02:01:24;11.90;99.90
13711;DHT22;6927;51.256;9.410;2023-05-07T02:03:50;11.80;99.90
13711;DHT22;6927;51.256;9.410;2023-05-07T02:06:16;11.80;99.90
13711;DHT22;6927;51.256;9.410;2023-05-07T02:08:41;11.80;99.90
13711;DHT22;6927;51.256;9.410;2023-05-07T02:11:07;11.80;99.90
13711;DHT22;6927;51.256;9.410;2023-05-07T02:13:33;11.90;99.90
13711;DHT22;6927;51.256;9.410;2023-05-07T02:16:00;11.90;99.90
13711;DHT22;6927;51.256;9.410;2023-05-07T02:18:25;11.80;99.90
13711;DHT22;6927;51.256;9.410;2023-05-07T02:20:51;11.80;99.90
13711;DHT22;6927;51.256;9.410;2023-05-07T02:23:16;11.90;99.90
13711;DHT22;6927;51.256;9.410;2023-05-07T02:25:42;11.80;99.90
13711;DHT22;6927;51.256;9.410;2023-05-07T02:28:07;11.80;99.90
13711;DHT22;6927;51.256;9.410;2023-05-07T02:30:33;11.80;99.90
13711;DHT22;6927;51.256;9.410;2023-05-07T02:32:58;11.90;99.90
13711;DHT22;6927;51.256;9.410;2023-05-07T02:35:25;11.80;99.90
13711;DHT22;6927;51.256;9.410;2023-05-07T02:37:51;11.90;99.90
13711;DHT22;6927;51.256;9.410;2023-05-07T02:40:17;11.80;99.90
13711;DHT22;6927;51.256;9.410;2023-05-07T02:42:42;11.80;99.90
13711;DHT22;6927;51.256;9.410;2023-05-07T02:45:08;11.80;99.90
13711;DHT22;6927;51.256;9.410;2023-05-07T02:47:34;11.80;99.90
13711;DHT22;6927;51.256;9.410;2023-05-07T02:50:00;11.90;99.90
13711;DHT22;6927;51.256;9.410;2023-05-07T02:52:25;11.90;99.90
13711;DHT22;6927;51.256;9.410;2023-05-07T02:54:51;11.90;99.90
13711;DHT22;6927;51.256;9.410;2023-05-07T02:57:16;11.90;99.90
13711;DHT22;6927;51.256;9.410;2023-05-07T02:59:42;11.80;99.90
13711;DHT22;6927;51.256;9.410;2023-05-07T03:02:08;11.80;99.90
13711;DHT22;6927;51.256;9.410;2023-05-07T03:04:33;11.80;99.90
13711;DHT22;6927;51.256;9.410;2023-05-07T03:06:59;11.80;99.90
13711;DHT22;6927;51.256;9.410;2023-05-07T03:09:24;11.80;99.90
13711;DHT22;6927;51.256;9.410;2023-05-07T03:11:51;11.80;99.90
13711;DHT22;6927;51.256;9.410;2023-05-07T03:14:16;11.80;99.90
13711;DHT22;6927;51.256;9.410;2023-05-07T03:16:42;11.90;99.90
13711;DHT22;6927;51.256;9.410;2023-05-07T03:19:07;11.80;99.90
13711;DHT22;6927;51.256;9.410;2023-05-07T03:21:33;11.80;99.90
13711;DHT22;6927;51.256;9.410;2023-05-07T03:23:59;11.80;99.90
13711;DHT22;6927;51.256;9.410;2023-05-07T03:26:25;11.80;99.90
13711;DHT22;6927;51.256;9.410;2023-05-07T03:28:51;11.80;99.90
13711;DHT22;6927;51.256;9.410;2023-05-07T03:31:17;11.70;99.90
13711;DHT22;6927;51.256;9.410;2023-05-07T03:33:53;11.70;99.90
13711;DHT22;6927;51.256;9.410;2023-05-07T03:36:19;11.70;99.90
13711;DHT22;6927;51.256;9.410;2023-05-07T03:38:44;11.70;99.90
13711;DHT22;6927;51.256;9.410;2023-05-07T03:41:10;11.70;99.90
13711;DHT22;6927;51.256;9.410;2023-05-07T03:43:35;11.70;99.90
13711;DHT22;6927;51.256;9.410;2023-05-07T03:46:01;11.70;99.90
13711;DHT22;6927;51.256;9.410;2023-05-07T03:48:27;11.70;99.90
13711;DHT22;6927;51.256;9.410;2023-05-07T03:50:52;11.70;99.90
13711;DHT22;6927;51.256;9.410;2023-05-07T03:53:18;11.60;99.90
13711;DHT22;6927;51.256;9.410;2023-05-07T03:55:43;11.60;99.90
13711;DHT22;6927;51.256;9.410;2023-05-07T03:58:09;11.60;99.90
13711;DHT22;6927;51.256;9.410;2023-05-07T04:00:34;11.50;99.90
13711;DHT22;6927;51.256;9.410;2023-05-07T04:03:04;11.50;99.90
13711;DHT22;6927;51.256;9.410;2023-05-07T04:05:30;11.50;99.90
13711;DHT22;6927;51.256;9.410;2023-05-07T04:07:55;11.50;99.90
13711;DHT22;6927;51.256;9.410;2023-05-07T04:10:21;11.40;99.90
13711;DHT22;6927;51.256;9.410;2023-05-07T04:12:47;11.40;99.90
13711;DHT22;6927;51.256;9.410;2023-05-07T04:15:12;11.40;99.90
13711;DHT22;6927;51.256;9.410;2023-05-07T04:17:38;11.40;99.90
13711;DHT22;6927;51.256;9.410;2023-05-07T04:20:04;11.30;99.90
13711;DHT22;6927;51.256;9.410;2023-05-07T04:22:31;11.30;99.90
13711;DHT22;6927;51.256;9.410;2023-05-07T04:24:56;11.20;99.90
13711;DHT22;6927;51.256;9.410;2023-05-07T04:27:22;11.20;99.90
13711;DHT22;6927;51.256;9.410;2023-05-07T04:29:47;11.10;99.90
13711;DHT22;6927;51.256;9.410;2023-05-07T04:32:13;11.10;99.90
13711;DHT22;6927;51.256;9.410;2023-05-07T04:34:39;11.10;99.90
13711;DHT22;6927;51.256;9.410;2023-05-07T04:37:04;11.10;99.90
13711;DHT22;6927;51.256;9.410;2023-05-07T04:39:30;11.10;99.90
13711;DHT22;6927;51.256;9.410;2023-05-07T04:41:55;11.10;99.90
13711;DHT22;6927;51.256;9.410;2023-05-07T04:44:21;11.00;99.90
13711;DHT22;6927;51.256;9.410;2023-05-07T04:46:47;11.00;99.90
13711;DHT22;6927;51.256;9.410;2023-05-07T04:49:12;11.00;99.90
13711;DHT22;6927;51.256;9.410;2023-05-07T04:51:38;11.00;99.90
13711;DHT22;6927;51.256;9.410;2023-05-07T04:54:03;11.00;99.90
13711;DHT22;6927;51.256;9.410;2023-05-07T04:56:29;11.10;99.90
13711;DHT22;6927;51.256;9.410;2023-05-07T04:58:55;11.10;99.90
13711;DHT22;6927;51.256;9.410;2023-05-07T05:01:21;11.10;99.90
13711;DHT22;6927;51.256;9.410;2023-05-07T05:03:46;11.10;99.90
13711;DHT22;6927;51.256;9.410;2023-05-07T05:06:12;11.10;99.90
13711;DHT22;6927;51.256;9.410;2023-05-07T05:08:37;11.10;99.90
13711;DHT22;6927;51.256;9.410;2023-05-07T05:11:03;11.20;99.90
13711;DHT22;6927;51.256;9.410;2023-05-07T05:13:28;11.20;99.90
13711;DHT22;6927;51.256;9.410;2023-05-07T05:15:55;11.20;99.90
13711;DHT22;6927;51.256;9.410;2023-05-07T05:18:21;11.20;99.90
13711;DHT22;6927;51.256;9.410;2023-05-07T05:20:46;11.20;99.90
13711;DHT22;6927;51.256;9.410;2023-05-07T05:23:12;11.20;99.90
13711;DHT22;6927;51.256;9.410;2023-05-07T05:25:37;11.20;99.90
13711;DHT22;6927;51.256;9.410;2023-05-07T05:28:04;11.20;99.90
13711;DHT22;6927;51.256;9.410;2023-05-07T05:30:30;11.20;99.90
13711;DHT22;6927;51.256;9.410;2023-05-07T05:32:55;11.30;99.90
13711;DHT22;6927;51.256;9.410;2023-05-07T05:35:21;11.30;99.90
13711;DHT22;6927;51.256;9.410;2023-05-07T05:37:46;11.30;99.90
13711;DHT22;6927;51.256;9.410;2023-05-07T05:40:13;11.30;99.90
13711;DHT22;6927;51.256;9.410;2023-05-07T05:42:39;11.30;99.90
13711;DHT22;6927;51.256;9.410;2023-05-07T05:45:05;11.30;99.90
13711;DHT22;6927;51.256;9.410;2023-05-07T05:47:31;11.30;99.90
13711;DHT22;6927;51.256;9.410;2023-05-07T05:49:56;11.30;99.90
13711;DHT22;6927;51.256;9.410;2023-05-07T05:52:22;11.40;99.90
13711;DHT22;6927;51.256;9.410;2023-05-07T05:54:49;11.40;99.90
13711;DHT22;6927;51.256;9.410;2023-05-07T05:57:15;11.40;99.90
13711;DHT22;6927;51.256;9.410;2023-05-07T05:59:40;11.40;99.90
13711;DHT22;6927;51.256;9.410;2023-05-07T06:02:06;11.50;99.90
13711;DHT22;6927;51.256;9.410;2023-05-07T06:04:32;11.50;99.90
13711;DHT22;6927;51.256;9.410;2023-05-07T06:06:57;11.60;99.90
13711;DHT22;6927;51.256;9.410;2023-05-07T06:09:23;11.70;99.90
13711;DHT22;6927;51.256;9.410;2023-05-07T06:11:48;11.70;99.90
13711;DHT22;6927;51.256;9.410;2023-05-07T06:14:15;11.70;99.90
13711;DHT22;6927;51.256;9.410;2023-05-07T06:16:40;11.70;99.90
13711;DHT22;6927;51.256;9.410;2023-05-07T06:19:06;11.80;99.90
13711;DHT22;6927;51.256;9.410;2023-05-07T06:21:31;11.80;99.90
13711;DHT22;6927;51.256;9.410;2023-05-07T06:23:57;11.80;99.90
13711;DHT22;6927;51.256;9.410;2023-05-07T06:26:22;11.80;99.90
13711;DHT22;6927;51.256;9.410;2023-05-07T06:28:48;11.80;99.90
13711;DHT22;6927;51.256;9.410;2023-05-07T06:31:15;11.90;99.90
13711;DHT22;6927;51.256;9.410;2023-05-07T06:33:42;11.90;99.90
13711;DHT22;6927;51.256;9.410;2023-05-07T06:36:08;11.90;99.90
13711;DHT22;6927;51.256;9.410;2023-05-07T06:38:33;11.90;99.90
13711;DHT22;6927;51.256;9.410;2023-05-07T06:40:59;12.00;99.90
13711;DHT22;6927;51.256;9.410;2023-05-07T06:43:24;12.00;99.90
13711;DHT22;6927;51.256;9.410;2023-05-07T06:45:50;12.00;99.90
13711;DHT22;6927;51.256;9.410;2023-05-07T06:48:15;11.90;99.90
13711;DHT22;6927;51.256;9.410;2023-05-07T06:50:42;11.90;99.90
13711;DHT22;6927;51.256;9.410;2023-05-07T06:53:07;12.00;99.90
13711;DHT22;6927;51.256;9.410;2023-05-07T06:55:33;12.10;99.90
13711;DHT22;6927;51.256;9.410;2023-05-07T06:57:58;12.10;99.90
13711;DHT22;6927;51.256;9.410;2023-05-07T07:00:26;12.10;99.90
13711;DHT22;6927;51.256;9.410;2023-05-07T07:02:53;12.10;99.90
13711;DHT22;6927;51.256;9.410;2023-05-07T07:05:19;12.20;99.90
13711;DHT22;6927;51.256;9.410;2023-05-07T07:07:47;12.20;99.90
13711;DHT22;6927;51.256;9.410;2023-05-07T07:10:22;12.30;99.90
13711;DHT22;6927;51.256;9.410;2023-05-07T07:12:48;12.40;99.90
13711;DHT22;6927;51.256;9.410;2023-05-07T07:15:14;12.50;99.90
13711;DHT22;6927;51.256;9.410;2023-05-07T07:17:40;12.60;99.90
13711;DHT22;6927;51.256;9.410;2023-05-07T07:20:06;12.70;99.90
13711;DHT22;6927;51.256;9.410;2023-05-07T07:22:31;12.90;99.90
13711;DHT22;6927;51.256;9.410;2023-05-07T07:24:57;13.00;99.90
13711;DHT22;6927;51.256;9.410;2023-05-07T07:27:23;13.00;99.90
13711;DHT22;6927;51.256;9.410;2023-05-07T07:29:48;13.20;99.90
13711;DHT22;6927;51.256;9.410;2023-05-07T07:32:14;13.30;99.90
13711;DHT22;6927;51.256;9.410;2023-05-07T07:34:39;13.50;99.90
13711;DHT22;6927;51.256;9.410;2023-05-07T07:37:05;13.60;99.90
13711;DHT22;6927;51.256;9.410;2023-05-07T07:39:32;13.90;99.90
13711;DHT22;6927;51.256;9.410;2023-05-07T07:41:58;14.10;99.90
13711;DHT22;6927;51.256;9.410;2023-05-07T07:44:23;14.20;99.90
13711;DHT22;6927;51.256;9.410;2023-05-07T07:46:49;14.40;99.90
13711;DHT22;6927;51.256;9.410;2023-05-07T07:49:16;14.40;99.90
13711;DHT22;6927;51.256;9.410;2023-05-07T07:51:41;14.50;99.90
13711;DHT22;6927;51.256;9.410;2023-05-07T07:54:07;14.80;99.90
13711;DHT22;6927;51.256;9.410;2023-05-07T07:56:33;15.00;99.90
13711;DHT22;6927;51.256;9.410;2023-05-07T07:58:59;15.10;99.90
13711;DHT22;6927;51.256;9.410;2023-05-07T08:01:24;14.90;99.90
13711;DHT22;6927;51.256;9.410;2023-05-07T08:04:08;15.00;99.90
13711;DHT22;6927;51.256;9.410;2023-05-07T08:06:33;15.00;99.90
13711;DHT22;6927;51.256;9.410;2023-05-07T08:08:59;15.00;99.90
13711;DHT22;6927;51.256;9.410;2023-05-07T08:11:24;15.10;99.90
13711;DHT22;6927;51.256;9.410;2023-05-07T08:13:50;15.20;99.90
13711;DHT22;6927;51.256;9.410;2023-05-07T08:16:16;15.50;99.90
13711;DHT22;6927;51.256;9.410;2023-05-07T08:18:41;15.60;99.90
13711;DHT22;6927;51.256;9.410;2023-05-07T08:21:07;15.80;99.90
13711;DHT22;6927;51.256;9.410;2023-05-07T08:23:33;16.00;99.90
13711;DHT22;6927;51.256;9.410;2023-05-07T08:26:00;15.90;99.90
13711;DHT22;6927;51.256;9.410;2023-05-07T08:28:25;15.90;99.90
13711;DHT22;6927;51.256;9.410;2023-05-07T08:30:51;16.00;99.90
13711;DHT22;6927;51.256;9.410;2023-05-07T08:33:16;16.00;99.90
13711;DHT22;6927;51.256;9.410;2023-05-07T08:35:42;15.90;99.90
13711;DHT22;6927;51.256;9.410;2023-05-07T08:38:08;16.20;99.90
13711;DHT22;6927;51.256;9.410;2023-05-07T08:40:37;16.50;99.90
13711;DHT22;6927;51.256;9.410;2023-05-07T08:43:05;17.30;99.90
13711;DHT22;6927;51.256;9.410;2023-05-07T08:45:33;17.70;99.90
13711;DHT22;6927;51.256;9.410;2023-05-07T08:48:01;18.00;99.90
13711;DHT22;6927;51.256;9.410;2023-05-07T08:50:28;18.20;99.90
13711;DHT22;6927;51.256;9.410;2023-05-07T08:52:54;18.70;99.90
13711;DHT22;6927;51.256;9.410;2023-05-07T08:55:20;18.70;99.90
13711;DHT22;6927;51.256;9.410;2023-05-07T08:57:46;18.80;99.90
13711;DHT22;6927;51.256;9.410;2023-05-07T09:00:13;18.90;99.90
13711;DHT22;6927;51.256;9.410;2023-05-07T09:02:39;18.10;99.90
13711;DHT22;6927;51.256;9.410;2023-05-07T09:05:05;17.40;99.90
13711;DHT22;6927;51.256;9.410;2023-05-07T09:07:31;16.90;99.90
13711;DHT22;6927;51.256;9.410;2023-05-07T09:09:56;16.80;99.90
13711;DHT22;6927;51.256;9.410;2023-05-07T09:12:23;16.40;99.90
13711;DHT22;6927;51.256;9.410;2023-05-07T09:14:49;16.20;99.90
13711;DHT22;6927;51.256;9.410;2023-05-07T09:17:16;16.30;99.90
13711;DHT22;6927;51.256;9.410;2023-05-07T09:19:46;16.30;99.90
13711;DHT22;6927;51.256;9.410;2023-05-07T09:22:12;16.50;99.90
13711;DHT22;6927;51.256;9.410;2023-05-07T09:24:38;16.60;99.90
13711;DHT22;6927;51.256;9.410;2023-05-07T09:27:05;16.60;99.90
13711;DHT22;6927;51.256;9.410;2023-05-07T09:29:31;16.70;99.90
13711;DHT22;6927;51.256;9.410;2023-05-07T09:32:05;16.90;99.90
13711;DHT22;6927;51.256;9.410;2023-05-07T09:34:30;17.50;99.90
13711;DHT22;6927;51.256;9.410;2023-05-07T09:37:00;18.10;99.90
13711;DHT22;6927;51.256;9.410;2023-05-07T09:39:26;18.10;99.90
13711;DHT22;6927;51.256;9.410;2023-05-07T09:41:52;17.50;99.90
13711;DHT22;6927;51.256;9.410;2023-05-07T09:44:20;17.30;99.90
13711;DHT22;6927;51.256;9.410;2023-05-07T09:46:49;17.40;99.90
13711;DHT22;6927;51.256;9.410;2023-05-07T09:49:22;17.60;99.90
13711;DHT22;6927;51.256;9.410;2023-05-07T09:51:49;17.60;99.90
13711;DHT22;6927;51.256;9.410;2023-05-07T09:54:16;17.20;99.90
13711;DHT22;6927;51.256;9.410;2023-05-07T09:56:43;17.00;99.90
13711;DHT22;6927;51.256;9.410;2023-05-07T09:59:14;17.00;99.90
13711;DHT22;6927;51.256;9.410;2023-05-07T10:01:42;16.90;99.90
13711;DHT22;6927;51.256;9.410;2023-05-07T10:04:08;17.20;99.90
13711;DHT22;6927;51.256;9.410;2023-05-07T10:06:37;17.50;99.90
13711;DHT22;6927;51.256;9.410;2023-05-07T10:09:04;17.80;99.90
13711;DHT22;6927;51.256;9.410;2023-05-07T10:11:34;17.40;99.90
13711;DHT22;6927;51.256;9.410;2023-05-07T10:14:01;17.50;99.90
13711;DHT22;6927;51.256;9.410;2023-05-07T10:16:31;17.30;99.90
13711;DHT22;6927;51.256;9.410;2023-05-07T10:18:58;17.10;99.90
13711;DHT22;6927;51.256;9.410;2023-05-07T10:21:26;17.10;99.90
13711;DHT22;6927;51.256;9.410;2023-05-07T10:23:58;17.20;99.90
13711;DHT22;6927;51.256;9.410;2023-05-07T10:26:27;17.00;99.90
13711;DHT22;6927;51.256;9.410;2023-05-07T10:29:02;16.90;99.90
13711;DHT22;6927;51.256;9.410;2023-05-07T10:34:16;17.40;99.90
13711;DHT22;6927;51.256;9.410;2023-05-07T10:36:43;17.80;99.90
13711;DHT22;6927;51.256;9.410;2023-05-07T10:39:09;18.20;99.90
13711;DHT22;6927;51.256;9.410;2023-05-07T10:41:35;18.70;99.90
13711;DHT22;6927;51.256;9.410;2023-05-07T10:44:02;18.90;99.90
13711;DHT22;6927;51.256;9.410;2023-05-07T10:46:27;19.30;99.90
13711;DHT22;6927;51.256;9.410;2023-05-07T10:51:34;19.40;99.90
13711;DHT22;6927;51.256;9.410;2023-05-07T10:56:36;18.90;99.90
13711;DHT22;6927;51.256;9.410;2023-05-07T11:04:25;19.90;99.90
13711;DHT22;6927;51.256;9.410;2023-05-07T11:09:55;19.50;99.90
13711;DHT22;6927;51.256;9.410;2023-05-07T11:15:12;19.50;99.90
13711;DHT22;6927;51.256;9.410;2023-05-07T11:17:58;19.90;99.90
13711;DHT22;6927;51.256;9.410;2023-05-07T11:20:52;19.80;99.90
13711;DHT22;6927;51.256;9.410;2023-05-07T11:26:07;19.60;99.90
13711;DHT22;6927;51.256;9.410;2023-05-07T11:28:41;19.20;99.90
13711;DHT22;6927;51.256;9.410;2023-05-07T11:31:07;19.10;99.90
13711;DHT22;6927;51.256;9.410;2023-05-07T11:33:38;19.30;99.90
13711;DHT22;6927;51.256;9.410;2023-05-07T11:36:05;19.40;99.90
13711;DHT22;6927;51.256;9.410;2023-05-07T11:38:39;19.50;99.90
13711;DHT22;6927;51.256;9.410;2023-05-07T11:41:05;19.60;99.90
13711;DHT22;6927;51.256;9.410;2023-05-07T11:43:32;19.70;99.90
13711;DHT22;6927;51.256;9.410;2023-05-07T11:46:10;19.80;99.90
13711;DHT22;6927;51.256;9.410;2023-05-07T11:48:36;19.70;99.90
13711;DHT22;6927;51.256;9.410;2023-05-07T11:51:06;19.60;99.90
13711;DHT22;6927;51.256;9.410;2023-05-07T11:53:52;19.40;99.90
13711;DHT22;6927;51.256;9.410;2023-05-07T11:56:18;19.40;99.90
13711;DHT22;6927;51.256;9.410;2023-05-07T11:58:45;19.60;99.90
13711;DHT22;6927;51.256;9.410;2023-05-07T12:01:12;19.80;99.90
13711;DHT22;6927;51.256;9.410;2023-05-07T12:03:41;19.70;99.90
13711;DHT22;6927;51.256;9.410;2023-05-07T12:06:08;20.00;99.90
13711;DHT22;6927;51.256;9.410;2023-05-07T12:08:36;20.10;99.90
13711;DHT22;6927;51.256;9.410;2023-05-07T12:11:03;20.20;99.90
13711;DHT22;6927;51.256;9.410;2023-05-07T12:13:32;20.20;99.90
13711;DHT22;6927;51.256;9.410;2023-05-07T12:15:57;20.00;99.90
13711;DHT22;6927;51.256;9.410;2023-05-07T12:18:23;20.10;99.90
13711;DHT22;6927;51.256;9.410;2023-05-07T12:20:50;20.10;99.90
13711;DHT22;6927;51.256;9.410;2023-05-07T12:23:16;19.80;99.90
13711;DHT22;6927;51.256;9.410;2023-05-07T12:25:42;20.00;99.90
13711;DHT22;6927;51.256;9.410;2023-05-07T12:28:19;20.10;99.90
13711;DHT22;6927;51.256;9.410;2023-05-07T12:30:47;20.00;99.90
13711;DHT22;6927;51.256;9.410;2023-05-07T12:33:23;19.90;99.90
13711;DHT22;6927;51.256;9.410;2023-05-07T12:35:49;19.70;99.90
13711;DHT22;6927;51.256;9.410;2023-05-07T12:38:16;19.40;99.90
13711;DHT22;6927;51.256;9.410;2023-05-07T12:40:44;19.50;99.90
13711;DHT22;6927;51.256;9.410;2023-05-07T12:43:21;19.40;99.90
13711;DHT22;6927;51.256;9.410;2023-05-07T12:45:48;19.20;99.90
13711;DHT22;6927;51.256;9.410;2023-05-07T12:48:14;18.90;99.90
13711;DHT22;6927;51.256;9.410;2023-05-07T12:50:40;19.10;99.90
13711;DHT22;6927;51.256;9.410;2023-05-07T12:53:07;19.20;99.90
13711;DHT22;6927;51.256;9.410;2023-05-07T12:55:45;19.20;99.90
13711;DHT22;6927;51.256;9.410;2023-05-07T12:58:18;19.30;99.90
13711;DHT22;6927;51.256;9.410;2023-05-07T13:00:44;19.40;99.90
13711;DHT22;6927;51.256;9.410;2023-05-07T13:03:30;19.40;99.90
13711;DHT22;6927;51.256;9.410;2023-05-07T13:05:58;19.50;99.90
13711;DHT22;6927;51.256;9.410;2023-05-07T13:10:54;19.70;99.90
13711;DHT22;6927;51.256;9.410;2023-05-07T13:13:20;19.60;99.90
13711;DHT22;6927;51.256;9.410;2023-05-07T13:15:47;19.30;99.90
13711;DHT22;6927;51.256;9.410;2023-05-07T13:18:12;19.50;99.90
13711;DHT22;6927;51.256;9.410;2023-05-07T13:20:38;19.70;99.90
13711;DHT22;6927;51.256;9.410;2023-05-07T13:23:04;19.50;99.90
13711;DHT22;6927;51.256;9.410;2023-05-07T13:25:30;19.10;99.90
13711;DHT22;6927;51.256;9.410;2023-05-07T13:27:57;19.10;99.90
13711;DHT22;6927;51.256;9.410;2023-05-07T13:30:23;19.30;99.90
13711;DHT22;6927;51.256;9.410;2023-05-07T13:32:48;19.10;99.90
13711;DHT22;6927;51.256;9.410;2023-05-07T13:35:16;18.90;99.90
13711;DHT22;6927;51.256;9.410;2023-05-07T13:37:41;18.70;99.90
13711;DHT22;6927;51.256;9.410;2023-05-07T13:40:07;19.10;99.90
13711;DHT22;6927;51.256;9.410;2023-05-07T13:42:33;19.20;99.90
13711;DHT22;6927;51.256;9.410;2023-05-07T13:44:59;19.30;99.90
13711;DHT22;6927;51.256;9.410;2023-05-07T13:47:24;19.10;99.90
13711;DHT22;6927;51.256;9.410;2023-05-07T13:49:50;18.80;99.90
13711;DHT22;6927;51.256;9.410;2023-05-07T13:52:16;18.80;99.90
13711;DHT22;6927;51.256;9.410;2023-05-07T13:54:42;18.60;99.90
13711;DHT22;6927;51.256;9.410;2023-05-07T13:57:07;18.70;99.90
13711;DHT22;6927;51.256;9.410;2023-05-07T13:59:33;18.70;99.90
13711;DHT22;6927;51.256;9.410;2023-05-07T14:01:59;18.80;99.90
13711;DHT22;6927;51.256;9.410;2023-05-07T14:04:25;18.70;99.90
13711;DHT22;6927;51.256;9.410;2023-05-07T14:06:50;18.60;99.90
13711;DHT22;6927;51.256;9.410;2023-05-07T14:09:17;18.60;99.90
13711;DHT22;6927;51.256;9.410;2023-05-07T14:11:43;18.50;99.90
13711;DHT22;6927;51.256;9.410;2023-05-07T14:14:08;18.30;99.90
13711;DHT22;6927;51.256;9.410;2023-05-07T14:16:37;18.30;99.90
13711;DHT22;6927;51.256;9.410;2023-05-07T14:19:03;18.30;99.90
13711;DHT22;6927;51.256;9.410;2023-05-07T14:21:28;18.30;99.90
13711;DHT22;6927;51.256;9.410;2023-05-07T14:23:54;18.30;99.90
13711;DHT22;6927;51.256;9.410;2023-05-07T14:26:21;18.50;99.90
13711;DHT22;6927;51.256;9.410;2023-05-07T14:28:48;18.40;99.90
13711;DHT22;6927;51.256;9.410;2023-05-07T14:31:14;18.30;99.90
13711;DHT22;6927;51.256;9.410;2023-05-07T14:33:39;18.10;99.90
13711;DHT22;6927;51.256;9.410;2023-05-07T14:36:05;18.00;99.90
13711;DHT22;6927;51.256;9.410;2023-05-07T14:38:31;18.20;99.90
13711;DHT22;6927;51.256;9.410;2023-05-07T14:40:58;18.40;99.90
13711;DHT22;6927;51.256;9.410;2023-05-07T14:43:23;18.50;99.90
13711;DHT22;6927;51.256;9.410;2023-05-07T14:45:49;18.50;99.90
13711;DHT22;6927;51.256;9.410;2023-05-07T14:48:15;18.60;99.90
13711;DHT22;6927;51.256;9.410;2023-05-07T14:50:46;18.90;99.90
13711;DHT22;6927;51.256;9.410;2023-05-07T14:53:11;19.00;99.90
13711;DHT22;6927;51.256;9.410;2023-05-07T14:55:37;18.90;99.90
13711;DHT22;6927;51.256;9.410;2023-05-07T14:58:03;18.40;99.90
13711;DHT22;6927;51.256;9.410;2023-05-07T15:00:28;18.30;99.90
13711;DHT22;6927;51.256;9.410;2023-05-07T15:02:57;18.20;99.90
13711;DHT22;6927;51.256;9.410;2023-05-07T15:05:25;18.00;99.90
13711;DHT22;6927;51.256;9.410;2023-05-07T15:07:51;17.70;99.90
13711;DHT22;6927;51.256;9.410;2023-05-07T15:10:16;18.00;99.90
13711;DHT22;6927;51.256;9.410;2023-05-07T15:12:42;18.40;99.90
13711;DHT22;6927;51.256;9.410;2023-05-07T15:15:08;18.20;99.90
13711;DHT22;6927;51.256;9.410;2023-05-07T15:17:34;18.00;99.90
13711;DHT22;6927;51.256;9.410;2023-05-07T15:19:59;18.10;99.90
13711;DHT22;6927;51.256;9.410;2023-05-07T15:22:25;18.30;99.90
13711;DHT22;6927;51.256;9.410;2023-05-07T15:24:50;18.30;99.90
13711;DHT22;6927;51.256;9.410;2023-05-07T15:27:16;18.20;99.90
13711;DHT22;6927;51.256;9.410;2023-05-07T15:29:42;17.90;99.90
13711;DHT22;6927;51.256;9.410;2023-05-07T15:32:08;17.90;99.90
13711;DHT22;6927;51.256;9.410;2023-05-07T15:34:34;17.80;99.90
13711;DHT22;6927;51.256;9.410;2023-05-07T15:36:59;17.70;99.90
13711;DHT22;6927;51.256;9.410;2023-05-07T15:39:25;17.50;99.90
13711;DHT22;6927;51.256;9.410;2023-05-07T15:41:50;17.20;99.90
13711;DHT22;6927;51.256;9.410;2023-05-07T15:44:16;16.90;99.90
13711;DHT22;6927;51.256;9.410;2023-05-07T15:46:41;16.80;99.90
13711;DHT22;6927;51.256;9.410;2023-05-07T15:49:07;16.80;99.90
13711;DHT22;6927;51.256;9.410;2023-05-07T15:51:34;16.70;99.90
13711;DHT22;6927;51.256;9.410;2023-05-07T15:54:00;16.50;99.90
13711;DHT22;6927;51.256;9.410;2023-05-07T15:56:26;16.50;99.90
13711;DHT22;6927;51.256;9.410;2023-05-07T15:58:51;16.50;99.90
13711;DHT22;6927;51.256;9.410;2023-05-07T16:01:18;16.70;99.90
13711;DHT22;6927;51.256;9.410;2023-05-07T16:03:43;16.80;99.90
13711;DHT22;6927;51.256;9.410;2023-05-07T16:06:09;16.80;99.90